Time;durP1;ratioP1;P1;durP2;ratioP2;P2;SDS_P1;SDS_P2;PMS_P1;PMS_P2;Temp;Humidity;BMP_temperature;BMP_pressure;BME280_temperature;BME280_humidity;BME280_pressure;Samples;Min_cycle;Max_cycle;Signal;HPM_P1;HPM_P2
2023/12/19 00:01:37;;;;;;;11.00;6.00;;;;;;;;;;6292021;22;20915;-89
2023/12/19 00:04:03;;;;;;;5.93;4.80;;;;;;;;;;6286460;22;20457;-89
2023/12/19 00:06:30;;;;;;;5.87;4.90;;;;;;;;;;6288833;22;20431;-89
2023/12/19 00:08:56;;;;;;;7.50;6.60;;;;;;;;;;6288349;22;20395;-88
2023/12/19 00:11:22;;;;;;;12.03;6.70;;;;;;;;;;6285037;22;20407;-89
2023/12/19 00:13:48;;;;;;;14.23;5.87;;;;;;;;;;6285626;22;20360;-88
2023/12/19 00:16:13;;;;;;;6.20;5.60;;;;;;;;;;6285027;22;20368;-89
2023/12/19 00:18:39;;;;;;;7.57;6.77;;;;;;;;;;6284794;22;20432;-91
2023/12/19 00:21:06;;;;;;;6.53;5.73;;;;;;;;;;6283556;22;20477;-90
2023/12/19 00:23:31;;;;;;;9.50;6.10;;;;;;;;;;6286654;22;20376;-89
2023/12/19 00:25:58;;;;;;;7.43;5.10;;;;;;;;;;6311055;22;20381;-89
2023/12/19 00:28:24;;;;;;;6.67;4.43;;;;;;;;;;6287509;22;20503;-89
2023/12/19 00:30:50;;;;;;;6.70;5.23;;;;;;;;;;6284992;22;20424;-90
2023/12/19 00:33:16;;;;;;;7.40;5.90;;;;;;;;;;6286385;22;20373;-89
2023/12/19 00:35:42;;;;;;;5.17;4.67;;;;;;;;;;6310562;22;20353;-90
2023/12/19 00:38:08;;;;;;;7.67;5.53;;;;;;;;;;6282745;22;20424;-89
2023/12/19 00:40:34;;;;;;;8.03;6.43;;;;;;;;;;6309662;22;20852;-90
2023/12/19 00:43:00;;;;;;;5.30;4.80;;;;;;;;;;6287425;22;20468;-89
2023/12/19 00:45:26;;;;;;;8.57;4.87;;;;;;;;;;6285188;22;20380;-89
2023/12/19 00:47:52;;;;;;;6.20;4.53;;;;;;;;;;6286701;22;20376;-89
2023/12/19 00:50:18;;;;;;;8.50;5.50;;;;;;;;;;6282850;22;20411;-89
2023/12/19 00:52:44;;;;;;;6.37;5.77;;;;;;;;;;6287067;22;20376;-90
2023/12/19 00:55:10;;;;;;;8.50;5.70;;;;;;;;;;6284832;22;20939;-89
2023/12/19 00:57:36;;;;;;;10.20;5.90;;;;;;;;;;6286525;22;20511;-89
2023/12/19 01:00:02;;;;;;;6.93;6.27;;;;;;;;;;6284196;22;20361;-89
2023/12/19 01:02:29;;;;;;;7.80;5.07;;;;;;;;;;6286618;22;20412;-89
2023/12/19 01:04:58;;;;;;;5.20;4.70;;;;;;;;;;6283163;22;20380;-90
2023/12/19 01:07:24;;;;;;;4.67;3.93;;;;;;;;;;6288009;22;21018;-90
2023/12/19 01:09:50;;;;;;;5.70;5.20;;;;;;;;;;6282526;22;20444;-88
2023/12/19 01:12:18;;;;;;;6.63;5.10;;;;;;;;;;6285100;22;20380;-89
2023/12/19 01:14:44;;;;;;;7.63;5.40;;;;;;;;;;6284450;22;20391;-89
2023/12/19 01:17:10;;;;;;;6.20;5.17;;;;;;;;;;6287098;22;20496;-89
2023/12/19 01:19:36;;;;;;;5.27;4.77;;;;;;;;;;6282248;22;20379;-89
2023/12/19 01:22:02;;;;;;;5.27;4.77;;;;;;;;;;6286056;22;20767;-88
2023/12/19 01:24:28;;;;;;;5.47;4.57;;;;;;;;;;6283490;22;20407;-90
2023/12/19 01:26:54;;;;;;;6.20;4.10;;;;;;;;;;6284647;22;20999;-89
2023/12/19 01:29:21;;;;;;;6.00;4.70;;;;;;;;;;6284258;22;20866;-89
2023/12/19 01:31:47;;;;;;;5.40;4.90;;;;;;;;;;6286326;22;20380;-90
2023/12/19 01:34:13;;;;;;;3.70;3.40;;;;;;;;;;6308334;22;20469;-87
2023/12/19 01:36:39;;;;;;;6.90;4.60;;;;;;;;;;6312033;22;20436;-89
2023/12/19 01:39:05;;;;;;;4.90;4.37;;;;;;;;;;6284615;22;20377;-90
2023/12/19 01:41:31;;;;;;;4.70;4.13;;;;;;;;;;6285202;22;20848;-89
2023/12/19 01:43:58;;;;;;;5.40;4.23;;;;;;;;;;6284642;22;20429;-89
2023/12/19 01:46:24;;;;;;;6.40;4.63;;;;;;;;;;6311308;22;20361;-88
2023/12/19 01:48:50;;;;;;;8.07;4.87;;;;;;;;;;6283901;22;20873;-89
2023/12/19 01:51:16;;;;;;;5.00;4.23;;;;;;;;;;6284236;22;20452;-89
2023/12/19 01:53:44;;;;;;;7.37;5.20;;;;;;;;;;6310068;22;20747;-90
2023/12/19 01:56:10;;;;;;;7.60;3.93;;;;;;;;;;6309361;22;20380;-89
2023/12/19 01:58:36;;;;;;;21.23;5.23;;;;;;;;;;6282239;22;21102;-89
2023/12/19 02:01:02;;;;;;;8.97;6.10;;;;;;;;;;6284376;22;20388;-89
2023/12/19 02:03:28;;;;;;;13.00;4.63;;;;;;;;;;6284722;22;20427;-89
2023/12/19 02:05:54;;;;;;;7.27;5.23;;;;;;;;;;6311204;22;20747;-88
2023/12/19 02:08:21;;;;;;;4.20;3.80;;;;;;;;;;6287005;22;20934;-89
2023/12/19 02:10:47;;;;;;;6.50;4.60;;;;;;;;;;6281861;22;20399;-89
2023/12/19 02:13:13;;;;;;;5.10;4.40;;;;;;;;;;6310380;22;20374;-88
2023/12/19 02:15:39;;;;;;;3.73;3.43;;;;;;;;;;6282672;22;20855;-88
2023/12/19 02:18:17;;;;;;;8.47;4.83;;;;;;;;;;6284176;22;20442;-89
2023/12/19 02:20:43;;;;;;;4.67;3.67;;;;;;;;;;6284035;22;20445;-89
2023/12/19 02:23:11;;;;;;;7.30;4.93;;;;;;;;;;6282547;22;20401;-89
2023/12/19 02:25:37;;;;;;;8.63;5.10;;;;;;;;;;6336210;22;20368;-89
2023/12/19 02:28:03;;;;;;;4.93;4.43;;;;;;;;;;6283432;22;20465;-88
2023/12/19 02:30:29;;;;;;;6.67;4.50;;;;;;;;;;6283605;22;20412;-89
2023/12/19 02:32:55;;;;;;;6.40;5.10;;;;;;;;;;6282343;22;20387;-89
2023/12/19 02:35:21;;;;;;;6.57;5.10;;;;;;;;;;6311239;22;20368;-89
2023/12/19 02:37:47;;;;;;;6.10;4.63;;;;;;;;;;6282744;22;20412;-88
2023/12/19 02:40:13;;;;;;;5.33;4.10;;;;;;;;;;6286372;22;20386;-89
2023/12/19 02:42:43;;;;;;;4.57;3.10;;;;;;;;;;6282828;22;20404;-89
2023/12/19 02:45:10;;;;;;;3.60;3.30;;;;;;;;;;6282962;22;20400;-89
2023/12/19 02:47:36;;;;;;;6.37;3.83;;;;;;;;;;6282503;22;20404;-88
2023/12/19 02:50:02;;;;;;;10.57;4.07;;;;;;;;;;6287167;22;20377;-89
2023/12/19 02:52:28;;;;;;;5.60;3.90;;;;;;;;;;6311224;22;20546;-89
2023/12/19 02:54:54;;;;;;;8.43;3.33;;;;;;;;;;6287340;22;20384;-89
2023/12/19 02:57:21;;;;;;;4.43;3.97;;;;;;;;;;6283809;22;21108;-89
2023/12/19 02:59:47;;;;;;;3.63;3.00;;;;;;;;;;6309664;22;20855;-89
2023/12/19 03:02:13;;;;;;;3.63;3.20;;;;;;;;;;6282230;22;20436;-89
2023/12/19 03:04:39;;;;;;;4.20;3.80;;;;;;;;;;6282809;22;20372;-88
2023/12/19 03:07:05;;;;;;;4.53;3.73;;;;;;;;;;6281273;22;20374;-89
2023/12/19 03:09:35;;;;;;;6.97;4.10;;;;;;;;;;6281752;22;20475;-90
2023/12/19 03:12:04;;;;;;;6.17;3.87;;;;;;;;;;6285343;22;20380;-89
2023/12/19 03:14:31;;;;;;;6.10;3.93;;;;;;;;;;6282074;22;20384;-88
2023/12/19 03:16:57;;;;;;;6.57;3.30;;;;;;;;;;6281543;22;20501;-90
2023/12/19 03:19:23;;;;;;;2.87;2.67;;;;;;;;;;6280922;22;20848;-88
2023/12/19 03:21:49;;;;;;;6.03;3.40;;;;;;;;;;6287203;22;20376;-89
2023/12/19 03:24:18;;;;;;;3.07;2.73;;;;;;;;;;6285631;22;20356;-89
2023/12/19 03:26:44;;;;;;;4.27;3.43;;;;;;;;;;6288111;22;20383;-89
2023/12/19 03:29:10;;;;;;;2.97;2.67;;;;;;;;;;6310551;22;20364;-89
2023/12/19 03:31:39;;;;;;;3.87;2.40;;;;;;;;;;6286798;22;20376;-90
2023/12/19 03:34:06;;;;;;;5.93;3.70;;;;;;;;;;6281790;22;20395;-89
2023/12/19 03:36:32;;;;;;;3.43;3.13;;;;;;;;;;6285481;22;20844;-89
2023/12/19 03:38:58;;;;;;;3.23;2.93;;;;;;;;;;6285960;22;20375;-90
2023/12/19 03:41:24;;;;;;;3.17;2.87;;;;;;;;;;6315484;22;20356;-88
2023/12/19 03:43:50;;;;;;;3.13;2.50;;;;;;;;;;6287879;22;20425;-88
2023/12/19 03:46:17;;;;;;;5.23;3.30;;;;;;;;;;6283805;22;20422;-89
2023/12/19 03:48:45;;;;;;;5.20;2.63;;;;;;;;;;6285351;22;20388;-88
2023/12/19 03:51:12;;;;;;;9.60;4.23;;;;;;;;;;6285694;22;20760;-89
2023/12/19 03:53:38;;;;;;;5.43;3.17;;;;;;;;;;6288062;22;20384;-88
2023/12/19 03:56:04;;;;;;;3.60;2.63;;;;;;;;;;6284745;22;20759;-89
2023/12/19 03:58:30;;;;;;;3.97;3.57;;;;;;;;;;6287914;22;20420;-88
2023/12/19 04:00:56;;;;;;;5.40;2.93;;;;;;;;;;6284991;22;20376;-89
2023/12/19 04:03:22;;;;;;;5.50;3.57;;;;;;;;;;6284511;22;21026;-89
2023/12/19 04:05:48;;;;;;;4.30;3.90;;;;;;;;;;6284360;22;20459;-89
2023/12/19 04:08:14;;;;;;;3.13;2.33;;;;;;;;;;6286259;22;20884;-89
2023/12/19 04:10:40;;;;;;;4.97;2.60;;;;;;;;;;6284373;22;20399;-88
2023/12/19 04:13:06;;;;;;;2.63;2.43;;;;;;;;;;6288211;22;20387;-88
2023/12/19 04:15:33;;;;;;;3.90;2.50;;;;;;;;;;6284638;22;20391;-89
2023/12/19 04:17:59;;;;;;;3.90;2.87;;;;;;;;;;6284873;22;20495;-89
2023/12/19 04:20:25;;;;;;;6.23;3.40;;;;;;;;;;6282706;22;20376;-87
2023/12/19 04:22:50;;;;;;;3.73;2.93;;;;;;;;;;6283754;22;20384;-89
2023/12/19 04:25:17;;;;;;;2.93;2.20;;;;;;;;;;6284753;22;20372;-88
2023/12/19 04:27:43;;;;;;;3.33;3.00;;;;;;;;;;6288842;22;20384;-88
2023/12/19 04:30:09;;;;;;;2.53;2.33;;;;;;;;;;6287022;22;20416;-89
2023/12/19 04:32:35;;;;;;;8.07;4.50;;;;;;;;;;6286877;22;20376;-89
2023/12/19 04:35:01;;;;;;;2.60;2.03;;;;;;;;;;6285410;22;20420;-89
2023/12/19 04:37:30;;;;;;;5.73;3.77;;;;;;;;;;6309822;22;20826;-89
2023/12/19 04:39:57;;;;;;;4.30;2.93;;;;;;;;;;6284831;22;20376;-89
2023/12/19 04:42:23;;;;;;;2.93;2.47;;;;;;;;;;6287060;22;20429;-89
2023/12/19 04:44:49;;;;;;;3.03;2.70;;;;;;;;;;6291306;22;20442;-88
2023/12/19 04:47:15;;;;;;;4.37;2.97;;;;;;;;;;6286113;22;20542;-89
2023/12/19 04:49:41;;;;;;;2.57;2.37;;;;;;;;;;6285311;22;21281;-89
2023/12/19 04:52:07;;;;;;;3.27;2.10;;;;;;;;;;6283933;22;20380;-89
2023/12/19 04:54:33;;;;;;;6.73;3.00;;;;;;;;;;6313020;22;20369;-89
2023/12/19 04:56:59;;;;;;;3.57;2.40;;;;;;;;;;6286821;22;20409;-89
2023/12/19 04:59:25;;;;;;;3.40;2.60;;;;;;;;;;6290474;22;20410;-89
2023/12/19 05:01:51;;;;;;;3.57;2.77;;;;;;;;;;6287087;22;20410;-89
2023/12/19 05:04:17;;;;;;;3.90;3.23;;;;;;;;;;6286588;22;20640;-89
2023/12/19 05:06:43;;;;;;;4.00;2.97;;;;;;;;;;6284943;22;20462;-89
2023/12/19 05:09:09;;;;;;;2.13;2.00;;;;;;;;;;6285789;22;20384;-88
2023/12/19 05:11:35;;;;;;;3.63;3.33;;;;;;;;;;6285783;22;20483;-89
2023/12/19 05:14:02;;;;;;;4.13;3.77;;;;;;;;;;6290648;22;20436;-89
2023/12/19 05:16:28;;;;;;;3.60;3.00;;;;;;;;;;6284929;22;20377;-89
2023/12/19 05:18:54;;;;;;;1.70;1.60;;;;;;;;;;6282711;22;20431;-89
2023/12/19 05:21:21;;;;;;;2.63;1.80;;;;;;;;;;6283365;22;20385;-89
2023/12/19 05:23:47;;;;;;;4.50;2.80;;;;;;;;;;6335566;22;20388;-88
2023/12/19 05:26:13;;;;;;;4.37;2.77;;;;;;;;;;6286256;22;20372;-88
2023/12/19 05:28:39;;;;;;;3.80;2.57;;;;;;;;;;6284290;22;20499;-89
2023/12/19 05:31:05;;;;;;;4.67;3.03;;;;;;;;;;6285959;22;20451;-89
2023/12/19 05:33:32;;;;;;;2.03;1.80;;;;;;;;;;6286636;22;20392;-89
2023/12/19 05:35:58;;;;;;;2.60;2.13;;;;;;;;;;6284558;22;20425;-89
2023/12/19 05:38:24;;;;;;;1.80;1.70;;;;;;;;;;6287062;22;20675;-89
2023/12/19 05:40:56;;;;;;;1.23;1.13;;;;;;;;;;6284502;22;20403;-88
2023/12/19 05:43:22;;;;;;;3.57;2.50;;;;;;;;;;6287490;22;20611;-89
2023/12/19 05:45:48;;;;;;;2.27;1.70;;;;;;;;;;6310978;22;20386;-88
2023/12/19 05:48:14;;;;;;;3.60;2.77;;;;;;;;;;6288846;22;20373;-89
2023/12/19 05:50:40;;;;;;;2.33;2.23;;;;;;;;;;6283340;22;20387;-88
2023/12/19 05:53:06;;;;;;;3.47;3.17;;;;;;;;;;6283516;22;20383;-89
2023/12/19 05:55:32;;;;;;;3.00;2.80;;;;;;;;;;6282385;22;20440;-87
2023/12/19 05:57:58;;;;;;;8.87;4.63;;;;;;;;;;6282924;22;20416;-89
2023/12/19 06:00:24;;;;;;;2.40;2.20;;;;;;;;;;6282290;22;20483;-89
2023/12/19 06:02:50;;;;;;;6.23;3.30;;;;;;;;;;6288116;22;20388;-89
2023/12/19 06:05:16;;;;;;;2.23;2.07;;;;;;;;;;6284602;22;20439;-88
2023/12/19 06:07:42;;;;;;;4.20;2.67;;;;;;;;;;6285813;22;20368;-89
2023/12/19 06:10:09;;;;;;;3.57;3.23;;;;;;;;;;6286577;22;20764;-90
2023/12/19 06:12:35;;;;;;;4.10;2.17;;;;;;;;;;6287517;22;20480;-88
2023/12/19 06:15:02;;;;;;;2.83;2.27;;;;;;;;;;6286218;22;20380;-91
2023/12/19 06:17:29;;;;;;;2.50;1.77;;;;;;;;;;6286215;22;20813;-89
2023/12/19 06:19:54;;;;;;;3.93;2.83;;;;;;;;;;6286592;22;20476;-90
2023/12/19 06:22:21;;;;;;;3.13;2.77;;;;;;;;;;6285354;22;20376;-89
2023/12/19 06:24:47;;;;;;;5.70;2.83;;;;;;;;;;6290119;22;20381;-89
2023/12/19 06:27:16;;;;;;;2.53;2.10;;;;;;;;;;6283476;22;20384;-89
2023/12/19 06:29:42;;;;;;;2.70;2.40;;;;;;;;;;6285757;22;20412;-89
2023/12/19 06:32:11;;;;;;;2.77;2.57;;;;;;;;;;6284660;22;20404;-87
2023/12/19 06:34:37;;;;;;;3.70;2.83;;;;;;;;;;6287546;22;20372;-90
2023/12/19 06:37:03;;;;;;;3.30;2.70;;;;;;;;;;6284479;22;20404;-90
2023/12/19 06:39:29;;;;;;;3.03;2.53;;;;;;;;;;6287960;22;20453;-91
2023/12/19 06:41:55;;;;;;;2.80;2.60;;;;;;;;;;6282698;22;20400;-91
2023/12/19 06:44:21;;;;;;;2.93;2.57;;;;;;;;;;6284447;22;20383;-90
2023/12/19 06:46:49;;;;;;;4.10;2.43;;;;;;;;;;6284918;22;20383;-89
2023/12/19 06:49:18;;;;;;;2.70;2.50;;;;;;;;;;6287353;22;20705;-89
2023/12/19 06:51:44;;;;;;;5.60;3.10;;;;;;;;;;6286823;22;20412;-89
2023/12/19 06:54:10;;;;;;;5.03;3.07;;;;;;;;;;6315363;22;20683;-89
2023/12/19 06:56:36;;;;;;;4.10;3.07;;;;;;;;;;6286734;22;20430;-90
2023/12/19 06:59:04;;;;;;;3.43;3.13;;;;;;;;;;6288064;22;20372;-89
2023/12/19 07:01:30;;;;;;;5.23;3.53;;;;;;;;;;6286756;22;20411;-91
2023/12/19 07:03:56;;;;;;;4.70;3.70;;;;;;;;;;6290157;22;20384;-90
2023/12/19 07:06:22;;;;;;;4.67;3.70;;;;;;;;;;6284741;22;20408;-89
2023/12/19 07:08:48;;;;;;;4.63;3.53;;;;;;;;;;6287079;22;20380;-89
2023/12/19 07:11:14;;;;;;;6.60;5.17;;;;;;;;;;6285822;22;20733;-90
2023/12/19 07:13:40;;;;;;;4.30;3.60;;;;;;;;;;6285024;22;20400;-91
2023/12/19 07:16:06;;;;;;;5.00;3.40;;;;;;;;;;6252777;22;20396;-89
2023/12/19 07:18:33;;;;;;;3.03;2.70;;;;;;;;;;6228010;22;21005;-90
2023/12/19 07:20:59;;;;;;;6.00;3.63;;;;;;;;;;6229320;22;20461;-89
2023/12/19 07:23:25;;;;;;;5.07;4.57;;;;;;;;;;6229450;22;20456;-90
2023/12/19 07:25:51;;;;;;;7.50;4.00;;;;;;;;;;6228989;22;20407;-92
2023/12/19 07:28:17;;;;;;;14.10;4.60;;;;;;;;;;6229247;22;20389;-90
2023/12/19 07:30:43;;;;;;;3.80;3.50;;;;;;;;;;6229337;22;20944;-89
2023/12/19 07:33:09;;;;;;;9.57;4.20;;;;;;;;;;6227653;22;20385;-91
2023/12/19 07:35:35;;;;;;;4.83;4.00;;;;;;;;;;6227413;22;20732;-89
2023/12/19 07:38:01;;;;;;;5.73;5.20;;;;;;;;;;6224903;22;20421;-90
2023/12/19 07:40:27;;;;;;;7.97;6.90;;;;;;;;;;6230859;22;20388;-89
2023/12/19 07:42:54;;;;;;;6.10;4.00;;;;;;;;;;6226188;22;20378;-89
2023/12/19 07:45:20;;;;;;;11.20;5.73;;;;;;;;;;6227831;22;20384;-90
2023/12/19 07:47:46;;;;;;;10.13;4.10;;;;;;;;;;6272113;22;20384;-90
2023/12/19 07:50:12;;;;;;;4.73;4.33;;;;;;;;;;6287394;22;20437;-89
2023/12/19 07:52:40;;;;;;;6.30;4.77;;;;;;;;;;6286195;22;20391;-90
2023/12/19 07:55:09;;;;;;;10.20;5.67;;;;;;;;;;6286193;22;20384;-89
2023/12/19 07:57:37;;;;;;;8.80;7.13;;;;;;;;;;6287355;22;20981;-89
2023/12/19 08:00:03;;;;;;;11.07;5.50;;;;;;;;;;6312402;22;20372;-88
2023/12/19 08:02:30;;;;;;;5.10;4.40;;;;;;;;;;6285581;22;20361;-89
2023/12/19 08:04:56;;;;;;;5.07;4.57;;;;;;;;;;6293097;22;20384;-90
2023/12/19 08:07:22;;;;;;;5.60;3.70;;;;;;;;;;6284974;22;20406;-90
2023/12/19 08:09:48;;;;;;;6.87;4.07;;;;;;;;;;6288128;22;20380;-89
2023/12/19 08:12:14;;;;;;;8.27;5.80;;;;;;;;;;6286973;22;20383;-89
2023/12/19 08:14:41;;;;;;;5.93;4.70;;;;;;;;;;6288794;22;20377;-91
2023/12/19 08:17:07;;;;;;;8.00;5.20;;;;;;;;;;6285221;22;20428;-90
2023/12/19 08:19:32;;;;;;;6.10;4.30;;;;;;;;;;6286404;22;20490;-89
2023/12/19 08:21:58;;;;;;;5.50;5.00;;;;;;;;;;6287265;22;20384;-89
2023/12/19 08:24:25;;;;;;;7.60;5.30;;;;;;;;;;6288445;22;20376;-92
2023/12/19 08:26:52;;;;;;;6.13;3.93;;;;;;;;;;6287560;22;20460;-90
2023/12/19 08:29:18;;;;;;;7.53;5.10;;;;;;;;;;6287510;22;20447;-90
2023/12/19 08:31:47;;;;;;;5.23;4.63;;;;;;;;;;6287332;22;20381;-90
2023/12/19 08:34:17;;;;;;;8.13;5.07;;;;;;;;;;6288514;22;20392;-90
2023/12/19 08:36:43;;;;;;;5.23;4.17;;;;;;;;;;6290199;22;20396;-89
2023/12/19 08:39:10;;;;;;;4.97;4.37;;;;;;;;;;6287681;22;20373;-89
2023/12/19 08:41:37;;;;;;;4.27;3.87;;;;;;;;;;6287268;22;20432;-89
2023/12/19 08:44:03;;;;;;;9.83;6.60;;;;;;;;;;6289137;22;20372;-90
2023/12/19 08:46:29;;;;;;;8.77;5.50;;;;;;;;;;6284889;22;20376;-88
2023/12/19 08:48:56;;;;;;;7.03;6.00;;;;;;;;;;6287673;22;20529;-91
2023/12/19 08:51:22;;;;;;;7.60;4.57;;;;;;;;;;6287365;22;20384;-90
2023/12/19 08:53:48;;;;;;;7.07;6.37;;;;;;;;;;6288817;22;20459;-90
2023/12/19 08:56:14;;;;;;;7.73;5.77;;;;;;;;;;6288029;22;20384;-90
2023/12/19 08:58:43;;;;;;;6.17;5.10;;;;;;;;;;6291893;22;20420;-90
2023/12/19 09:01:09;;;;;;;15.87;7.77;;;;;;;;;;6287726;22;20776;-89
2023/12/19 09:03:36;;;;;;;8.00;5.80;;;;;;;;;;6287418;22;20364;-89
2023/12/19 09:06:02;;;;;;;7.77;6.00;;;;;;;;;;6287116;22;20762;-89
2023/12/19 09:08:28;;;;;;;8.83;7.07;;;;;;;;;;6293141;22;20376;-92
2023/12/19 09:10:54;;;;;;;15.10;9.17;;;;;;;;;;6285763;22;20376;-89
2023/12/19 09:13:22;;;;;;;9.33;8.43;;;;;;;;;;6287163;22;20383;-91
2023/12/19 09:15:48;;;;;;;8.50;5.97;;;;;;;;;;6286295;22;20449;-90
2023/12/19 09:18:14;;;;;;;8.23;7.53;;;;;;;;;;6287572;22;20420;-89
2023/12/19 09:20:40;;;;;;;9.50;6.73;;;;;;;;;;6288807;22;20424;-89
2023/12/19 09:23:07;;;;;;;8.63;7.20;;;;;;;;;;6288215;22;20772;-89
2023/12/19 09:25:33;;;;;;;8.30;6.67;;;;;;;;;;6315885;22;20407;-89
2023/12/19 09:27:59;;;;;;;9.37;7.43;;;;;;;;;;6288353;22;20400;-90
2023/12/19 09:30:25;;;;;;;6.87;6.17;;;;;;;;;;6289297;22;20380;-90
2023/12/19 09:32:52;;;;;;;11.30;7.67;;;;;;;;;;6288602;22;20380;-90
2023/12/19 09:35:18;;;;;;;10.80;6.77;;;;;;;;;;6289777;22;20475;-90
2023/12/19 09:37:46;;;;;;;13.80;7.90;;;;;;;;;;6288601;22;20442;-90
2023/12/19 09:40:13;;;;;;;12.50;6.63;;;;;;;;;;6292716;22;20876;-90
2023/12/19 09:42:39;;;;;;;11.93;7.80;;;;;;;;;;6290721;22;20392;-90
2023/12/19 09:45:06;;;;;;;7.67;6.63;;;;;;;;;;6290403;22;20387;-90
2023/12/19 09:47:32;;;;;;;7.97;6.10;;;;;;;;;;6287734;22;20395;-89
2023/12/19 09:49:58;;;;;;;12.67;7.50;;;;;;;;;;6288458;22;20377;-90
2023/12/19 09:52:24;;;;;;;9.17;8.23;;;;;;;;;;6288293;22;20457;-90
2023/12/19 09:54:51;;;;;;;8.53;7.67;;;;;;;;;;6289342;22;20410;-91
2023/12/19 09:57:20;;;;;;;7.80;7.00;;;;;;;;;;6286599;22;20427;-91
2023/12/19 09:59:49;;;;;;;11.67;7.03;;;;;;;;;;6312107;22;20868;-89
2023/12/19 10:02:17;;;;;;;13.57;9.53;;;;;;;;;;6286132;22;20381;-91
2023/12/19 10:04:44;;;;;;;10.93;7.77;;;;;;;;;;6290096;22;20392;-91
2023/12/19 10:07:10;;;;;;;8.47;6.00;;;;;;;;;;6288040;22;20384;-93
2023/12/19 10:09:51;;;;;;;9.50;6.20;;;;;;;;;;6290461;22;20365;-94
2023/12/19 10:12:17;;;;;;;10.47;6.33;;;;;;;;;;6288998;22;20394;-93
2023/12/19 10:14:46;;;;;;;10.07;7.47;;;;;;;;;;6289499;22;20364;-92
2023/12/19 10:17:14;;;;;;;9.13;7.03;;;;;;;;;;6288050;22;20424;-91
2023/12/19 10:19:40;;;;;;;10.57;8.67;;;;;;;;;;6286760;22;20388;-95
2023/12/19 10:22:07;;;;;;;12.40;8.17;;;;;;;;;;6287499;22;20396;-93
2023/12/19 10:24:33;;;;;;;14.57;9.20;;;;;;;;;;6339697;22;20400;-90
2023/12/19 10:27:00;;;;;;;12.10;8.10;;;;;;;;;;6288632;22;20388;-91
2023/12/19 10:29:26;;;;;;;10.77;7.00;;;;;;;;;;6286181;22;20391;-90
2023/12/19 10:31:52;;;;;;;10.10;6.00;;;;;;;;;;6286271;22;20384;-92
2023/12/19 10:34:19;;;;;;;10.37;7.70;;;;;;;;;;6313003;22;20411;-91
2023/12/19 10:36:45;;;;;;;9.07;8.07;;;;;;;;;;6289177;22;20394;-91
2023/12/19 10:39:12;;;;;;;9.13;6.23;;;;;;;;;;6288443;22;20393;-91
2023/12/19 10:41:39;;;;;;;10.07;8.20;;;;;;;;;;6285948;22;20375;-90
2023/12/19 10:44:05;;;;;;;11.23;7.53;;;;;;;;;;6288811;22;20417;-92
2023/12/19 10:46:31;;;;;;;10.10;7.30;;;;;;;;;;6290271;22;20391;-91
2023/12/19 10:48:58;;;;;;;10.03;8.60;;;;;;;;;;6285318;22;20380;-88
2023/12/19 10:51:24;;;;;;;12.33;8.70;;;;;;;;;;6286314;22;20380;-91
2023/12/19 10:53:58;;;;;;;9.77;7.33;;;;;;;;;;6338045;22;20414;-90
2023/12/19 10:56:24;;;;;;;9.93;8.17;;;;;;;;;;6288853;22;20440;-90
2023/12/19 10:58:53;;;;;;;12.63;8.93;;;;;;;;;;6313285;22;20435;-91
2023/12/19 11:01:19;;;;;;;13.40;9.40;;;;;;;;;;6313765;22;20360;-89
2023/12/19 11:03:46;;;;;;;9.30;7.43;;;;;;;;;;6312525;22;20697;-89
2023/12/19 11:06:12;;;;;;;18.23;9.73;;;;;;;;;;6288301;22;20464;-92
2023/12/19 11:08:39;;;;;;;13.77;9.37;;;;;;;;;;6286511;22;20924;-89
2023/12/19 11:11:16;;;;;;;17.37;9.40;;;;;;;;;;6286203;22;20410;-90
2023/12/19 11:13:42;;;;;;;17.70;8.63;;;;;;;;;;6293138;22;20433;-93
2023/12/19 11:16:13;;;;;;;14.37;9.93;;;;;;;;;;6314748;22;20368;-91
2023/12/19 11:18:39;;;;;;;15.00;10.07;;;;;;;;;;6287107;22;20428;-91
2023/12/19 11:21:11;;;;;;;12.50;9.70;;;;;;;;;;6340067;22;20694;-91
2023/12/19 11:23:56;;;;;;;13.87;8.33;;;;;;;;;;6287123;22;20423;-92
2023/12/19 11:26:23;;;;;;;10.40;8.93;;;;;;;;;;6338414;22;20919;-90
2023/12/19 11:28:49;;;;;;;15.77;8.70;;;;;;;;;;6286521;22;20395;-91
2023/12/19 11:31:28;;;;;;;16.17;8.93;;;;;;;;;;6287037;22;20440;-92
2023/12/19 11:33:54;;;;;;;14.30;9.43;;;;;;;;;;6339723;22;20408;-91
2023/12/19 11:36:20;;;;;;;9.80;7.90;;;;;;;;;;6286348;22;20388;-90
2023/12/19 11:38:47;;;;;;;15.93;9.07;;;;;;;;;;6286825;22;20466;-90
2023/12/19 11:41:33;;;;;;;11.17;8.97;;;;;;;;;;6285995;22;20383;-91
2023/12/19 11:44:00;;;;;;;12.87;8.83;;;;;;;;;;6339471;22;20479;-91
2023/12/19 11:46:26;;;;;;;12.40;7.90;;;;;;;;;;6287279;22;20376;-91
2023/12/19 11:48:55;;;;;;;13.03;9.77;;;;;;;;;;6287628;22;20388;-92
2023/12/19 11:51:51;;;;;;;15.83;10.13;;;;;;;;;;6336907;22;20396;-92
2023/12/19 11:54:17;;;;;;;10.13;8.23;;;;;;;;;;6305554;22;20384;-91
2023/12/19 11:56:44;;;;;;;12.57;9.63;;;;;;;;;;6286163;22;21003;-91
2023/12/19 11:59:11;;;;;;;10.83;8.47;;;;;;;;;;6283423;22;20935;-91
2023/12/19 12:01:40;;;;;;;12.67;8.30;;;;;;;;;;6288623;22;20392;-91
2023/12/19 12:04:07;;;;;;;12.10;9.83;;;;;;;;;;6290472;22;20384;-94
2023/12/19 12:06:33;;;;;;;9.63;7.73;;;;;;;;;;6288479;22;20428;-93
2023/12/19 12:09:05;;;;;;;10.17;8.30;;;;;;;;;;6285715;22;20379;-93
2023/12/19 12:11:45;;;;;;;9.97;8.23;;;;;;;;;;6287625;22;20451;-91
2023/12/19 12:14:11;;;;;;;9.70;7.40;;;;;;;;;;6276208;22;20367;-92
2023/12/19 12:16:37;;;;;;;10.97;7.93;;;;;;;;;;6286892;22;20388;-92
2023/12/19 12:19:11;;;;;;;8.57;7.20;;;;;;;;;;6315626;22;20436;-92
2023/12/19 12:21:37;;;;;;;11.30;8.17;;;;;;;;;;6315377;22;20468;-92
2023/12/19 12:24:03;;;;;;;11.13;7.57;;;;;;;;;;6316929;22;20395;-92
2023/12/19 12:26:29;;;;;;;8.97;7.03;;;;;;;;;;6314468;22;20484;-90
2023/12/19 12:28:55;;;;;;;13.90;8.00;;;;;;;;;;6319248;22;20392;-91
2023/12/19 12:31:21;;;;;;;10.90;7.43;;;;;;;;;;6316966;22;20388;-92
2023/12/19 12:33:47;;;;;;;10.63;8.03;;;;;;;;;;6317425;22;20407;-92
2023/12/19 12:36:13;;;;;;;12.40;7.37;;;;;;;;;;6317939;22;20672;-91
2023/12/19 12:38:39;;;;;;;10.43;6.97;;;;;;;;;;6314779;22;20401;-92
2023/12/19 12:41:07;;;;;;;11.23;8.87;;;;;;;;;;6315188;22;20484;-91
2023/12/19 12:43:39;;;;;;;10.47;7.00;;;;;;;;;;6314411;22;20373;-93
2023/12/19 12:46:08;;;;;;;9.63;7.77;;;;;;;;;;6314664;22;20388;-90
2023/12/19 12:48:35;;;;;;;8.20;7.13;;;;;;;;;;6313184;22;20377;-92
2023/12/19 12:51:01;;;;;;;8.47;6.67;;;;;;;;;;6314781;22;20373;-92
2023/12/19 12:53:27;;;;;;;12.57;8.30;;;;;;;;;;6313349;22;20405;-91
2023/12/19 12:56:22;;;;;;;9.30;7.70;;;;;;;;;;6313206;22;20361;-90
2023/12/19 12:58:48;;;;;;;11.20;8.80;;;;;;;;;;6299448;22;20435;-91
2023/12/19 13:01:14;;;;;;;19.43;9.37;;;;;;;;;;6312930;22;20387;-91
2023/12/19 13:03:41;;;;;;;9.63;8.27;;;;;;;;;;6310754;22;20353;-90
2023/12/19 13:06:08;;;;;;;10.23;8.20;;;;;;;;;;6310385;22;20377;-91
2023/12/19 13:08:35;;;;;;;9.27;8.00;;;;;;;;;;6308142;22;20398;-92
2023/12/19 13:11:01;;;;;;;10.50;7.10;;;;;;;;;;6309751;22;20465;-91
2023/12/19 13:13:30;;;;;;;8.50;6.60;;;;;;;;;;6310218;22;20375;-93
2023/12/19 13:15:56;;;;;;;13.23;7.67;;;;;;;;;;6311047;22;20356;-91
2023/12/19 13:18:22;;;;;;;8.00;7.20;;;;;;;;;;6309288;22;20431;-92
2023/12/19 13:20:48;;;;;;;10.60;8.03;;;;;;;;;;6309415;22;20720;-90
2023/12/19 13:23:14;;;;;;;8.17;6.60;;;;;;;;;;6308156;22;20376;-92
2023/12/19 13:25:40;;;;;;;9.97;7.47;;;;;;;;;;6309694;22;20817;-91
2023/12/19 13:28:09;;;;;;;10.70;8.10;;;;;;;;;;6309528;22;20448;-91
2023/12/19 13:30:36;;;;;;;7.90;7.10;;;;;;;;;;6310888;22;20400;-90
2023/12/19 13:33:04;;;;;;;11.80;7.50;;;;;;;;;;6309174;22;20381;-91
2023/12/19 13:35:31;;;;;;;8.10;7.30;;;;;;;;;;6310518;22;20392;-90
2023/12/19 13:37:58;;;;;;;13.43;7.63;;;;;;;;;;6309564;22;20430;-92
2023/12/19 13:40:24;;;;;;;14.27;7.53;;;;;;;;;;6311916;22;20404;-91
2023/12/19 13:42:50;;;;;;;9.57;6.50;;;;;;;;;;6310273;22;20400;-90
2023/12/19 13:45:16;;;;;;;12.30;8.60;;;;;;;;;;6312074;22;20395;-92
2023/12/19 13:47:42;;;;;;;13.10;7.63;;;;;;;;;;6310851;22;20377;-92
2023/12/19 13:50:09;;;;;;;14.57;8.43;;;;;;;;;;6311419;22;20429;-91
2023/12/19 13:52:37;;;;;;;13.97;9.00;;;;;;;;;;6311909;22;20728;-91
2023/12/19 13:55:04;;;;;;;13.17;8.00;;;;;;;;;;6314110;22;20384;-92
2023/12/19 13:57:30;;;;;;;11.40;8.37;;;;;;;;;;6312078;22;20424;-92
2023/12/19 13:59:56;;;;;;;18.67;7.87;;;;;;;;;;6317007;22;20424;-91
2023/12/19 14:02:23;;;;;;;13.03;8.73;;;;;;;;;;6312070;22;20372;-92
2023/12/19 14:04:49;;;;;;;11.17;8.27;;;;;;;;;;6314857;22;20443;-91
2023/12/19 14:07:18;;;;;;;10.70;7.73;;;;;;;;;;6313157;22;20376;-91
2023/12/19 14:09:44;;;;;;;10.77;7.10;;;;;;;;;;6312951;22;20384;-92
2023/12/19 14:12:10;;;;;;;9.80;8.60;;;;;;;;;;6311716;22;20376;-93
2023/12/19 14:14:36;;;;;;;13.60;8.60;;;;;;;;;;6311695;22;20371;-91
2023/12/19 14:17:04;;;;;;;12.03;8.00;;;;;;;;;;6310658;22;20365;-92
2023/12/19 14:19:32;;;;;;;18.13;7.57;;;;;;;;;;6338423;22;20407;-91
2023/12/19 14:21:58;;;;;;;10.80;8.67;;;;;;;;;;6311660;22;20388;-91
2023/12/19 14:24:24;;;;;;;13.47;8.60;;;;;;;;;;6313410;22;20364;-91
2023/12/19 14:26:50;;;;;;;14.00;9.50;;;;;;;;;;6311583;22;21182;-92
2023/12/19 14:29:16;;;;;;;9.70;6.97;;;;;;;;;;6310599;22;20380;-91
2023/12/19 14:31:49;;;;;;;14.77;9.47;;;;;;;;;;6310580;22;20368;-92
2023/12/19 14:34:15;;;;;;;12.30;9.80;;;;;;;;;;6314928;22;20422;-91
2023/12/19 14:36:45;;;;;;;13.50;10.20;;;;;;;;;;6315341;22;21086;-92